sensor_id;sensor_type;location;lat;lon;timestamp;temperature;humidity
13369;DHT22;6753;52.520;13.450;2023-02-15T00:00:08;20.20;52.10
13369;DHT22;6753;52.520;13.450;2023-02-15T00:00:21;20.20;52.20
13369;DHT22;6753;52.520;13.450;2023-02-15T00:00:33;20.20;52.40
13369;DHT22;6753;52.520;13.450;2023-02-15T00:00:43;20.30;52.70
13369;DHT22;6753;52.520;13.450;2023-02-15T00:00:54;20.30;52.70
13369;DHT22;6753;52.520;13.450;2023-02-15T00:01:14;20.30;52.80
13369;DHT22;6753;52.520;13.450;2023-02-15T00:01:25;20.30;52.60
13369;DHT22;6753;52.520;13.450;2023-02-15T00:01:37;20.30;52.70
13369;DHT22;6753;52.520;13.450;2023-02-15T00:01:48;20.30;52.50
13369;DHT22;6753;52.520;13.450;2023-02-15T00:02:00;20.30;53.00
13369;DHT22;6753;52.520;13.450;2023-02-15T00:02:11;21.80;54.80
13369;DHT22;6753;52.520;13.450;2023-02-15T00:02:22;20.30;52.60
13369;DHT22;6753;52.520;13.450;2023-02-15T00:02:34;20.30;52.70
13369;DHT22;6753;52.520;13.450;2023-02-15T00:02:45;20.30;52.70
13369;DHT22;6753;52.520;13.450;2023-02-15T00:02:56;21.50;54.30
13369;DHT22;6753;52.520;13.450;2023-02-15T00:03:06;20.30;52.70
13369;DHT22;6753;52.520;13.450;2023-02-15T00:03:17;20.30;52.70
13369;DHT22;6753;52.520;13.450;2023-02-15T00:03:29;21.30;54.20
13369;DHT22;6753;52.520;13.450;2023-02-15T00:03:39;21.80;55.00
13369;DHT22;6753;52.520;13.450;2023-02-15T00:03:50;20.30;52.90
13369;DHT22;6753;52.520;13.450;2023-02-15T00:04:01;20.30;52.90
13369;DHT22;6753;52.520;13.450;2023-02-15T00:04:13;20.30;52.70
13369;DHT22;6753;52.520;13.450;2023-02-15T00:04:25;21.30;54.10
13369;DHT22;6753;52.520;13.450;2023-02-15T00:04:56;20.30;52.60
13369;DHT22;6753;52.520;13.450;2023-02-15T00:05:08;20.40;53.10
13369;DHT22;6753;52.520;13.450;2023-02-15T00:05:19;20.30;53.10
13369;DHT22;6753;52.520;13.450;2023-02-15T00:05:30;21.20;54.30
13369;DHT22;6753;52.520;13.450;2023-02-15T00:05:41;20.30;52.80
13369;DHT22;6753;52.520;13.450;2023-02-15T00:05:52;20.30;52.50
13369;DHT22;6753;52.520;13.450;2023-02-15T00:06:02;20.30;52.40
13369;DHT22;6753;52.520;13.450;2023-02-15T00:06:13;20.30;52.50
13369;DHT22;6753;52.520;13.450;2023-02-15T00:06:24;23.00;56.50
13369;DHT22;6753;52.520;13.450;2023-02-15T00:06:36;20.30;52.50
13369;DHT22;6753;52.520;13.450;2023-02-15T00:06:47;20.30;52.30
13369;DHT22;6753;52.520;13.450;2023-02-15T00:06:58;20.30;52.30
13369;DHT22;6753;52.520;13.450;2023-02-15T00:07:08;20.30;52.40
13369;DHT22;6753;52.520;13.450;2023-02-15T00:07:20;22.40;55.10
13369;DHT22;6753;52.520;13.450;2023-02-15T00:07:31;20.30;52.30
13369;DHT22;6753;52.520;13.450;2023-02-15T00:07:42;20.30;52.40
13369;DHT22;6753;52.520;13.450;2023-02-15T00:07:54;20.30;52.60
13369;DHT22;6753;52.520;13.450;2023-02-15T00:08:05;20.30;52.20
13369;DHT22;6753;52.520;13.450;2023-02-15T00:08:16;20.60;52.70
13369;DHT22;6753;52.520;13.450;2023-02-15T00:08:27;20.30;52.80
13369;DHT22;6753;52.520;13.450;2023-02-15T00:08:37;20.30;52.30
13369;DHT22;6753;52.520;13.450;2023-02-15T00:08:48;20.30;52.40
13369;DHT22;6753;52.520;13.450;2023-02-15T00:08:59;20.30;52.50
13369;DHT22;6753;52.520;13.450;2023-02-15T00:09:10;21.90;54.60
13369;DHT22;6753;52.520;13.450;2023-02-15T00:09:22;21.90;54.50
13369;DHT22;6753;52.520;13.450;2023-02-15T00:09:36;21.30;53.70
13369;DHT22;6753;52.520;13.450;2023-02-15T00:09:46;20.20;52.30
13369;DHT22;6753;52.520;13.450;2023-02-15T00:09:57;20.30;52.60
13369;DHT22;6753;52.520;13.450;2023-02-15T00:10:09;20.30;52.80
13369;DHT22;6753;52.520;13.450;2023-02-15T00:10:19;20.30;52.20
13369;DHT22;6753;52.520;13.450;2023-02-15T00:10:30;20.30;52.90
13369;DHT22;6753;52.520;13.450;2023-02-15T00:10:42;20.30;52.70
13369;DHT22;6753;52.520;13.450;2023-02-15T00:10:53;21.30;54.20
13369;DHT22;6753;52.520;13.450;2023-02-15T00:11:05;20.30;52.70
13369;DHT22;6753;52.520;13.450;2023-02-15T00:11:17;20.30;52.80
13369;DHT22;6753;52.520;13.450;2023-02-15T00:11:49;20.30;52.90
13369;DHT22;6753;52.520;13.450;2023-02-15T00:12:00;20.30;53.00
13369;DHT22;6753;52.520;13.450;2023-02-15T00:12:11;20.30;52.80
13369;DHT22;6753;52.520;13.450;2023-02-15T00:12:25;20.30;52.70
13369;DHT22;6753;52.520;13.450;2023-02-15T00:12:36;20.60;53.30
13369;DHT22;6753;52.520;13.450;2023-02-15T00:12:47;21.10;53.90
13369;DHT22;6753;52.520;13.450;2023-02-15T00:12:59;22.20;55.60
13369;DHT22;6753;52.520;13.450;2023-02-15T00:13:10;20.30;53.20
13369;DHT22;6753;52.520;13.450;2023-02-15T00:13:21;22.00;55.10
13369;DHT22;6753;52.520;13.450;2023-02-15T00:13:32;20.30;52.50
13369;DHT22;6753;52.520;13.450;2023-02-15T00:13:43;21.80;54.50
13369;DHT22;6753;52.520;13.450;2023-02-15T00:13:53;20.30;52.50
13369;DHT22;6753;52.520;13.450;2023-02-15T00:14:07;20.30;52.70
13369;DHT22;6753;52.520;13.450;2023-02-15T00:14:20;22.80;56.60
13369;DHT22;6753;52.520;13.450;2023-02-15T00:14:31;20.30;52.90
13369;DHT22;6753;52.520;13.450;2023-02-15T00:14:42;20.30;52.50
13369;DHT22;6753;52.520;13.450;2023-02-15T00:14:53;20.20;52.50
13369;DHT22;6753;52.520;13.450;2023-02-15T00:15:04;20.30;52.80
13369;DHT22;6753;52.520;13.450;2023-02-15T00:15:15;20.30;53.00
13369;DHT22;6753;52.520;13.450;2023-02-15T00:15:26;21.60;54.80
13369;DHT22;6753;52.520;13.450;2023-02-15T00:15:37;20.30;53.20
13369;DHT22;6753;52.520;13.450;2023-02-15T00:15:48;20.30;53.20
13369;DHT22;6753;52.520;13.450;2023-02-15T00:16:03;20.30;53.00
13369;DHT22;6753;52.520;13.450;2023-02-15T00:16:14;20.80;53.90
13369;DHT22;6753;52.520;13.450;2023-02-15T00:16:24;20.30;53.10
13369;DHT22;6753;52.520;13.450;2023-02-15T00:16:36;20.30;53.00
13369;DHT22;6753;52.520;13.450;2023-02-15T00:16:48;20.30;52.90
13369;DHT22;6753;52.520;13.450;2023-02-15T00:17:00;20.30;52.90
13369;DHT22;6753;52.520;13.450;2023-02-15T00:17:11;20.30;53.10
13369;DHT22;6753;52.520;13.450;2023-02-15T00:17:22;22.00;55.60
13369;DHT22;6753;52.520;13.450;2023-02-15T00:17:33;20.30;53.00
13369;DHT22;6753;52.520;13.450;2023-02-15T00:17:43;21.30;54.90
13369;DHT22;6753;52.520;13.450;2023-02-15T00:17:54;22.00;55.20
13369;DHT22;6753;52.520;13.450;2023-02-15T00:18:05;20.20;52.70
13369;DHT22;6753;52.520;13.450;2023-02-15T00:18:16;20.20;52.70
13369;DHT22;6753;52.520;13.450;2023-02-15T00:18:27;20.20;52.80
13369;DHT22;6753;52.520;13.450;2023-02-15T00:18:39;20.20;52.80
13369;DHT22;6753;52.520;13.450;2023-02-15T00:18:52;20.20;53.00
13369;DHT22;6753;52.520;13.450;2023-02-15T00:19:03;20.20;53.00
13369;DHT22;6753;52.520;13.450;2023-02-15T00:19:15;20.20;52.90
13369;DHT22;6753;52.520;13.450;2023-02-15T00:19:26;20.20;52.70
13369;DHT22;6753;52.520;13.450;2023-02-15T00:19:38;20.20;53.20
13369;DHT22;6753;52.520;13.450;2023-02-15T00:19:50;20.20;53.30
13369;DHT22;6753;52.520;13.450;2023-02-15T00:20:01;20.20;53.20
13369;DHT22;6753;52.520;13.450;2023-02-15T00:20:12;20.20;53.20
13369;DHT22;6753;52.520;13.450;2023-02-15T00:20:22;20.20;53.00
13369;DHT22;6753;52.520;13.450;2023-02-15T00:20:33;20.20;53.20
13369;DHT22;6753;52.520;13.450;2023-02-15T00:20:44;20.70;54.00
13369;DHT22;6753;52.520;13.450;2023-02-15T00:20:54;20.20;53.20
13369;DHT22;6753;52.520;13.450;2023-02-15T00:21:08;20.40;53.40
13369;DHT22;6753;52.520;13.450;2023-02-15T00:21:19;20.20;53.40
13369;DHT22;6753;52.520;13.450;2023-02-15T00:21:31;21.90;55.80
13369;DHT22;6753;52.520;13.450;2023-02-15T00:21:42;20.20;53.10
13369;DHT22;6753;52.520;13.450;2023-02-15T00:21:53;20.20;53.10
13369;DHT22;6753;52.520;13.450;2023-02-15T00:22:04;20.20;53.10
13369;DHT22;6753;52.520;13.450;2023-02-15T00:22:16;20.20;53.20
13369;DHT22;6753;52.520;13.450;2023-02-15T00:22:28;21.40;54.90
13369;DHT22;6753;52.520;13.450;2023-02-15T00:22:39;20.10;52.90
13369;DHT22;6753;52.520;13.450;2023-02-15T00:22:49;20.20;53.50
13369;DHT22;6753;52.520;13.450;2023-02-15T00:23:00;20.20;53.60
13369;DHT22;6753;52.520;13.450;2023-02-15T00:23:11;20.20;53.30
13369;DHT22;6753;52.520;13.450;2023-02-15T00:23:22;20.20;53.30
13369;DHT22;6753;52.520;13.450;2023-02-15T00:23:33;20.20;53.40
13369;DHT22;6753;52.520;13.450;2023-02-15T00:23:44;20.20;53.60
13369;DHT22;6753;52.520;13.450;2023-02-15T00:23:55;20.20;53.70
13369;DHT22;6753;52.520;13.450;2023-02-15T00:24:09;20.20;53.40
13369;DHT22;6753;52.520;13.450;2023-02-15T00:24:20;20.20;53.40
13369;DHT22;6753;52.520;13.450;2023-02-15T00:24:30;20.20;53.50
13369;DHT22;6753;52.520;13.450;2023-02-15T00:24:41;22.40;56.60
13369;DHT22;6753;52.520;13.450;2023-02-15T00:24:52;20.20;53.40
13369;DHT22;6753;52.520;13.450;2023-02-15T00:25:03;20.20;53.50
13369;DHT22;6753;52.520;13.450;2023-02-15T00:25:15;20.10;53.20
13369;DHT22;6753;52.520;13.450;2023-02-15T00:25:26;20.20;53.30
13369;DHT22;6753;52.520;13.450;2023-02-15T00:25:36;20.20;53.30
13369;DHT22;6753;52.520;13.450;2023-02-15T00:25:47;20.20;53.20
13369;DHT22;6753;52.520;13.450;2023-02-15T00:26:05;21.20;54.70
13369;DHT22;6753;52.520;13.450;2023-02-15T00:26:16;20.50;53.70
13369;DHT22;6753;52.520;13.450;2023-02-15T00:26:27;21.60;55.40
13369;DHT22;6753;52.520;13.450;2023-02-15T00:26:39;20.10;53.30
13369;DHT22;6753;52.520;13.450;2023-02-15T00:26:49;22.80;57.10
13369;DHT22;6753;52.520;13.450;2023-02-15T00:27:01;20.10;53.20
13369;DHT22;6753;52.520;13.450;2023-02-15T00:27:12;20.20;53.30
13369;DHT22;6753;52.520;13.450;2023-02-15T00:27:23;20.20;53.20
13369;DHT22;6753;52.520;13.450;2023-02-15T00:27:34;20.10;53.10
13369;DHT22;6753;52.520;13.450;2023-02-15T00:27:44;21.10;54.50
13369;DHT22;6753;52.520;13.450;2023-02-15T00:27:55;20.10;53.10
13369;DHT22;6753;52.520;13.450;2023-02-15T00:28:06;21.70;55.50
13369;DHT22;6753;52.520;13.450;2023-02-15T00:28:17;20.10;53.20
13369;DHT22;6753;52.520;13.450;2023-02-15T00:28:27;20.10;53.20
13369;DHT22;6753;52.520;13.450;2023-02-15T00:28:39;20.10;53.10
13369;DHT22;6753;52.520;13.450;2023-02-15T00:28:50;20.10;53.00
13369;DHT22;6753;52.520;13.450;2023-02-15T00:29:01;20.10;53.00
13369;DHT22;6753;52.520;13.450;2023-02-15T00:29:14;20.10;53.00
13369;DHT22;6753;52.520;13.450;2023-02-15T00:29:25;23.30;58.30
13369;DHT22;6753;52.520;13.450;2023-02-15T00:29:36;20.70;54.00
13369;DHT22;6753;52.520;13.450;2023-02-15T00:29:47;20.10;53.20
13369;DHT22;6753;52.520;13.450;2023-02-15T00:29:58;20.10;53.30
13369;DHT22;6753;52.520;13.450;2023-02-15T00:30:10;20.10;53.30
13369;DHT22;6753;52.520;13.450;2023-02-15T00:30:21;20.10;53.30
13369;DHT22;6753;52.520;13.450;2023-02-15T00:30:31;22.80;57.20
13369;DHT22;6753;52.520;13.450;2023-02-15T00:30:42;20.10;53.30
13369;DHT22;6753;52.520;13.450;2023-02-15T00:30:53;22.30;56.60
13369;DHT22;6753;52.520;13.450;2023-02-15T00:31:05;20.10;53.50
13369;DHT22;6753;52.520;13.450;2023-02-15T00:31:16;20.10;53.40
13369;DHT22;6753;52.520;13.450;2023-02-15T00:31:28;20.10;53.40
13369;DHT22;6753;52.520;13.450;2023-02-15T00:31:41;20.20;53.60
13369;DHT22;6753;52.520;13.450;2023-02-15T00:31:52;20.10;53.20
13369;DHT22;6753;52.520;13.450;2023-02-15T00:32:03;20.10;53.20
13369;DHT22;6753;52.520;13.450;2023-02-15T00:32:14;20.10;53.10
13369;DHT22;6753;52.520;13.450;2023-02-15T00:32:25;20.10;53.10
13369;DHT22;6753;52.520;13.450;2023-02-15T00:32:36;20.10;53.20
13369;DHT22;6753;52.520;13.450;2023-02-15T00:32:47;21.20;54.90
13369;DHT22;6753;52.520;13.450;2023-02-15T00:32:58;20.10;53.10
13369;DHT22;6753;52.520;13.450;2023-02-15T00:33:09;20.10;53.10
13369;DHT22;6753;52.520;13.450;2023-02-15T00:33:19;20.10;53.30
13369;DHT22;6753;52.520;13.450;2023-02-15T00:33:30;20.10;53.30
13369;DHT22;6753;52.520;13.450;2023-02-15T00:33:41;20.10;53.50
13369;DHT22;6753;52.520;13.450;2023-02-15T00:33:53;20.10;53.40
13369;DHT22;6753;52.520;13.450;2023-02-15T00:34:06;20.10;53.40
13369;DHT22;6753;52.520;13.450;2023-02-15T00:34:19;20.10;53.40
13369;DHT22;6753;52.520;13.450;2023-02-15T00:34:31;21.30;55.20
13369;DHT22;6753;52.520;13.450;2023-02-15T00:34:41;20.10;53.50
13369;DHT22;6753;52.520;13.450;2023-02-15T00:34:53;20.10;53.50
13369;DHT22;6753;52.520;13.450;2023-02-15T00:35:05;20.20;53.50
13369;DHT22;6753;52.520;13.450;2023-02-15T00:35:17;20.10;53.40
13369;DHT22;6753;52.520;13.450;2023-02-15T00:35:28;20.10;53.50
13369;DHT22;6753;52.520;13.450;2023-02-15T00:35:38;23.00;57.80
13369;DHT22;6753;52.520;13.450;2023-02-15T00:35:56;22.00;56.40
13369;DHT22;6753;52.520;13.450;2023-02-15T00:36:08;21.40;55.60
13369;DHT22;6753;52.520;13.450;2023-02-15T00:36:19;20.20;53.70
13369;DHT22;6753;52.520;13.450;2023-02-15T00:36:30;20.80;54.50
13369;DHT22;6753;52.520;13.450;2023-02-15T00:36:41;20.10;53.40
13369;DHT22;6753;52.520;13.450;2023-02-15T00:36:53;20.10;53.40
13369;DHT22;6753;52.520;13.450;2023-02-15T00:37:07;21.90;55.90
13369;DHT22;6753;52.520;13.450;2023-02-15T00:37:18;20.10;53.30
13369;DHT22;6753;52.520;13.450;2023-02-15T00:37:30;20.10;53.20
13369;DHT22;6753;52.520;13.450;2023-02-15T00:37:40;20.10;53.30
13369;DHT22;6753;52.520;13.450;2023-02-15T00:37:51;20.10;53.40
13369;DHT22;6753;52.520;13.450;2023-02-15T00:38:02;20.10;53.40
13369;DHT22;6753;52.520;13.450;2023-02-15T00:38:14;20.10;53.40
13369;DHT22;6753;52.520;13.450;2023-02-15T00:38:26;20.10;53.30
13369;DHT22;6753;52.520;13.450;2023-02-15T00:38:37;20.10;53.40
13369;DHT22;6753;52.520;13.450;2023-02-15T00:38:48;20.80;54.50
13369;DHT22;6753;52.520;13.450;2023-02-15T00:38:59;20.10;53.50
13369;DHT22;6753;52.520;13.450;2023-02-15T00:39:10;20.10;53.50
13369;DHT22;6753;52.520;13.450;2023-02-15T00:39:21;20.10;53.50
13369;DHT22;6753;52.520;13.450;2023-02-15T00:39:34;20.10;53.50
13369;DHT22;6753;52.520;13.450;2023-02-15T00:39:44;20.10;53.80
13369;DHT22;6753;52.520;13.450;2023-02-15T00:39:55;20.20;53.80
13369;DHT22;6753;52.520;13.450;2023-02-15T00:40:07;20.20;53.50
13369;DHT22;6753;52.520;13.450;2023-02-15T00:40:18;20.10;53.50
13369;DHT22;6753;52.520;13.450;2023-02-15T00:40:29;20.10;53.80
13369;DHT22;6753;52.520;13.450;2023-02-15T00:40:39;20.10;54.30
13369;DHT22;6753;52.520;13.450;2023-02-15T00:40:52;21.90;57.10
13369;DHT22;6753;52.520;13.450;2023-02-15T00:41:05;20.20;54.60
13369;DHT22;6753;52.520;13.450;2023-02-15T00:41:17;20.20;54.10
13369;DHT22;6753;52.520;13.450;2023-02-15T00:41:28;21.90;56.50
13369;DHT22;6753;52.520;13.450;2023-02-15T00:41:39;20.20;54.20
13369;DHT22;6753;52.520;13.450;2023-02-15T00:41:50;20.20;54.10
13369;DHT22;6753;52.520;13.450;2023-02-15T00:42:01;21.80;56.10
13369;DHT22;6753;52.520;13.450;2023-02-15T00:42:11;20.20;53.80
13369;DHT22;6753;52.520;13.450;2023-02-15T00:42:22;20.20;53.60
13369;DHT22;6753;52.520;13.450;2023-02-15T00:42:36;21.20;55.00
13369;DHT22;6753;52.520;13.450;2023-02-15T00:42:47;20.20;53.50
13369;DHT22;6753;52.520;13.450;2023-02-15T00:42:58;20.20;53.70
13369;DHT22;6753;52.520;13.450;2023-02-15T00:43:09;20.20;53.70
13369;DHT22;6753;52.520;13.450;2023-02-15T00:43:20;20.20;53.80
13369;DHT22;6753;52.520;13.450;2023-02-15T00:43:32;20.20;53.80
13369;DHT22;6753;52.520;13.450;2023-02-15T00:43:43;20.20;53.80
13369;DHT22;6753;52.520;13.450;2023-02-15T00:43:53;20.30;53.80
13369;DHT22;6753;52.520;13.450;2023-02-15T00:44:04;20.20;53.90
13369;DHT22;6753;52.520;13.450;2023-02-15T00:44:17;20.20;53.90
13369;DHT22;6753;52.520;13.450;2023-02-15T00:44:27;20.20;53.70
13369;DHT22;6753;52.520;13.450;2023-02-15T00:44:38;20.20;53.40
13369;DHT22;6753;52.520;13.450;2023-02-15T00:44:49;20.20;53.40
13369;DHT22;6753;52.520;13.450;2023-02-15T00:45:00;20.20;53.30
13369;DHT22;6753;52.520;13.450;2023-02-15T00:45:10;20.20;53.40
13369;DHT22;6753;52.520;13.450;2023-02-15T00:45:21;20.20;53.10
13369;DHT22;6753;52.520;13.450;2023-02-15T00:45:32;20.20;53.10
13369;DHT22;6753;52.520;13.450;2023-02-15T00:45:47;20.20;53.00
13369;DHT22;6753;52.520;13.450;2023-02-15T00:45:58;20.20;53.00
13369;DHT22;6753;52.520;13.450;2023-02-15T00:46:09;20.10;52.80
13369;DHT22;6753;52.520;13.450;2023-02-15T00:46:19;20.10;52.50
13369;DHT22;6753;52.520;13.450;2023-02-15T00:46:30;20.10;52.40
13369;DHT22;6753;52.520;13.450;2023-02-15T00:46:41;20.10;52.20
13369;DHT22;6753;52.520;13.450;2023-02-15T00:46:53;20.10;52.10
13369;DHT22;6753;52.520;13.450;2023-02-15T00:47:04;20.10;52.10
13369;DHT22;6753;52.520;13.450;2023-02-15T00:47:14;20.10;51.90
13369;DHT22;6753;52.520;13.450;2023-02-15T00:47:25;20.00;51.50
13369;DHT22;6753;52.520;13.450;2023-02-15T00:47:36;20.00;51.60
13369;DHT22;6753;52.520;13.450;2023-02-15T00:47:47;20.00;51.80
13369;DHT22;6753;52.520;13.450;2023-02-15T00:47:57;20.00;51.90
13369;DHT22;6753;52.520;13.450;2023-02-15T00:48:08;20.00;51.40
13369;DHT22;6753;52.520;13.450;2023-02-15T00:48:19;20.00;51.30
13369;DHT22;6753;52.520;13.450;2023-02-15T00:48:31;20.00;51.20
13369;DHT22;6753;52.520;13.450;2023-02-15T00:48:43;20.00;50.80
13369;DHT22;6753;52.520;13.450;2023-02-15T00:48:53;20.00;50.50
13369;DHT22;6753;52.520;13.450;2023-02-15T00:49:04;20.00;50.90
13369;DHT22;6753;52.520;13.450;2023-02-15T00:49:15;20.00;50.60
13369;DHT22;6753;52.520;13.450;2023-02-15T00:49:26;20.00;50.10
13369;DHT22;6753;52.520;13.450;2023-02-15T00:49:37;21.10;51.80
13369;DHT22;6753;52.520;13.450;2023-02-15T00:49:47;20.00;50.20
13369;DHT22;6753;52.520;13.450;2023-02-15T00:49:59;20.00;50.20
13369;DHT22;6753;52.520;13.450;2023-02-15T00:50:10;20.00;49.50
13369;DHT22;6753;52.520;13.450;2023-02-15T00:50:21;19.90;49.30
13369;DHT22;6753;52.520;13.450;2023-02-15T00:50:31;19.90;49.50
13369;DHT22;6753;52.520;13.450;2023-02-15T00:50:44;20.00;49.80
13369;DHT22;6753;52.520;13.450;2023-02-15T00:50:56;19.90;49.10
13369;DHT22;6753;52.520;13.450;2023-02-15T00:51:07;19.80;48.60
13369;DHT22;6753;52.520;13.450;2023-02-15T00:51:18;19.80;48.40
13369;DHT22;6753;52.520;13.450;2023-02-15T00:51:30;19.80;48.10
13369;DHT22;6753;52.520;13.450;2023-02-15T00:51:42;19.70;47.80
13369;DHT22;6753;52.520;13.450;2023-02-15T00:51:53;19.60;47.50
13369;DHT22;6753;52.520;13.450;2023-02-15T00:52:04;19.50;47.30
13369;DHT22;6753;52.520;13.450;2023-02-15T00:52:14;19.50;47.20
13369;DHT22;6753;52.520;13.450;2023-02-15T00:52:25;20.00;47.80
13369;DHT22;6753;52.520;13.450;2023-02-15T00:52:37;19.40;46.70
13369;DHT22;6753;52.520;13.450;2023-02-15T00:52:48;19.40;46.60
13369;DHT22;6753;52.520;13.450;2023-02-15T00:53:00;21.00;48.90
13369;DHT22;6753;52.520;13.450;2023-02-15T00:53:11;19.20;46.30
13369;DHT22;6753;52.520;13.450;2023-02-15T00:53:22;19.20;46.30
13369;DHT22;6753;52.520;13.450;2023-02-15T00:53:33;19.10;46.10
13369;DHT22;6753;52.520;13.450;2023-02-15T00:53:44;19.10;46.10
13369;DHT22;6753;52.520;13.450;2023-02-15T00:53:55;19.00;45.90
13369;DHT22;6753;52.520;13.450;2023-02-15T00:54:06;19.00;45.80
13369;DHT22;6753;52.520;13.450;2023-02-15T00:54:18;18.90;45.70
13369;DHT22;6753;52.520;13.450;2023-02-15T00:54:29;18.90;45.60
13369;DHT22;6753;52.520;13.450;2023-02-15T00:54:39;18.90;45.60
13369;DHT22;6753;52.520;13.450;2023-02-15T00:54:50;18.80;45.40
13369;DHT22;6753;52.520;13.450;2023-02-15T00:55:01;18.80;45.40
13369;DHT22;6753;52.520;13.450;2023-02-15T00:55:12;18.80;45.40
13369;DHT22;6753;52.520;13.450;2023-02-15T00:55:22;21.40;49.10
13369;DHT22;6753;52.520;13.450;2023-02-15T00:55:34;18.70;45.30
13369;DHT22;6753;52.520;13.450;2023-02-15T00:55:45;18.70;45.70
13369;DHT22;6753;52.520;13.450;2023-02-15T00:55:56;18.60;45.00
13369;DHT22;6753;52.520;13.450;2023-02-15T00:56:07;18.60;44.90
13369;DHT22;6753;52.520;13.450;2023-02-15T00:56:18;18.60;44.90
13369;DHT22;6753;52.520;13.450;2023-02-15T00:56:29;18.50;44.80
13369;DHT22;6753;52.520;13.450;2023-02-15T00:56:40;18.50;44.80
13369;DHT22;6753;52.520;13.450;2023-02-15T00:56:51;18.50;44.80
13369;DHT22;6753;52.520;13.450;2023-02-15T00:57:02;18.40;44.70
13369;DHT22;6753;52.520;13.450;2023-02-15T00:57:13;18.40;44.60
13369;DHT22;6753;52.520;13.450;2023-02-15T00:57:24;18.40;44.60
13369;DHT22;6753;52.520;13.450;2023-02-15T00:57:34;18.40;44.60
13369;DHT22;6753;52.520;13.450;2023-02-15T00:57:45;18.30;44.40
13369;DHT22;6753;52.520;13.450;2023-02-15T00:57:56;18.40;44.50
13369;DHT22;6753;52.520;13.450;2023-02-15T00:58:07;18.30;44.40
13369;DHT22;6753;52.520;13.450;2023-02-15T00:58:19;19.10;45.50
13369;DHT22;6753;52.520;13.450;2023-02-15T00:58:29;18.30;44.30
13369;DHT22;6753;52.520;13.450;2023-02-15T00:58:40;18.20;44.10
13369;DHT22;6753;52.520;13.450;2023-02-15T00:58:51;18.20;44.10
13369;DHT22;6753;52.520;13.450;2023-02-15T00:59:02;18.20;44.10
13369;DHT22;6753;52.520;13.450;2023-02-15T00:59:15;18.20;44.10
13369;DHT22;6753;52.520;13.450;2023-02-15T00:59:26;19.60;46.20
13369;DHT22;6753;52.520;13.450;2023-02-15T00:59:37;18.10;44.40
13369;DHT22;6753;52.520;13.450;2023-02-15T00:59:48;18.10;43.80
13369;DHT22;6753;52.520;13.450;2023-02-15T00:59:59;18.10;43.70
13369;DHT22;6753;52.520;13.450;2023-02-15T01:00:10;18.30;44.20
13369;DHT22;6753;52.520;13.450;2023-02-15T01:00:22;18.10;44.00
13369;DHT22;6753;52.520;13.450;2023-02-15T01:00:32;18.10;44.00
13369;DHT22;6753;52.520;13.450;2023-02-15T01:00:44;18.10;44.20
13369;DHT22;6753;52.520;13.450;2023-02-15T01:01:03;18.00;44.30
13369;DHT22;6753;52.520;13.450;2023-02-15T01:01:17;20.30;48.00
13369;DHT22;6753;52.520;13.450;2023-02-15T01:01:28;18.10;45.10
13369;DHT22;6753;52.520;13.450;2023-02-15T01:01:39;18.10;45.30
13369;DHT22;6753;52.520;13.450;2023-02-15T01:01:50;18.10;45.20
13369;DHT22;6753;52.520;13.450;2023-02-15T01:02:00;18.10;45.20
13369;DHT22;6753;52.520;13.450;2023-02-15T01:02:11;18.10;45.50
13369;DHT22;6753;52.520;13.450;2023-02-15T01:02:22;18.10;45.60
13369;DHT22;6753;52.520;13.450;2023-02-15T01:02:34;18.20;45.90
13369;DHT22;6753;52.520;13.450;2023-02-15T01:02:44;18.20;46.10
13369;DHT22;6753;52.520;13.450;2023-02-15T01:02:55;19.50;48.70
13369;DHT22;6753;52.520;13.450;2023-02-15T01:03:06;19.30;47.90
13369;DHT22;6753;52.520;13.450;2023-02-15T01:03:18;18.30;46.60
13369;DHT22;6753;52.520;13.450;2023-02-15T01:03:29;18.30;46.80
13369;DHT22;6753;52.520;13.450;2023-02-15T01:03:41;18.30;46.90
13369;DHT22;6753;52.520;13.450;2023-02-15T01:03:52;18.40;47.10
13369;DHT22;6753;52.520;13.450;2023-02-15T01:04:03;18.40;47.20
13369;DHT22;6753;52.520;13.450;2023-02-15T01:04:15;18.40;47.30
13369;DHT22;6753;52.520;13.450;2023-02-15T01:04:26;18.40;47.20
13369;DHT22;6753;52.520;13.450;2023-02-15T01:04:37;18.40;47.30
13369;DHT22;6753;52.520;13.450;2023-02-15T01:04:47;18.50;47.40
13369;DHT22;6753;52.520;13.450;2023-02-15T01:04:58;18.50;47.40
13369;DHT22;6753;52.520;13.450;2023-02-15T01:05:09;18.50;47.30
13369;DHT22;6753;52.520;13.450;2023-02-15T01:05:20;18.60;47.50
13369;DHT22;6753;52.520;13.450;2023-02-15T01:05:31;18.80;47.80
13369;DHT22;6753;52.520;13.450;2023-02-15T01:05:42;18.60;47.50
13369;DHT22;6753;52.520;13.450;2023-02-15T01:05:53;18.60;47.60
13369;DHT22;6753;52.520;13.450;2023-02-15T01:06:05;18.60;47.50
13369;DHT22;6753;52.520;13.450;2023-02-15T01:06:16;18.60;47.50
13369;DHT22;6753;52.520;13.450;2023-02-15T01:06:27;19.90;49.30
13369;DHT22;6753;52.520;13.450;2023-02-15T01:06:38;18.70;47.60
13369;DHT22;6753;52.520;13.450;2023-02-15T01:06:49;18.70;47.50
13369;DHT22;6753;52.520;13.450;2023-02-15T01:06:59;18.60;47.30
13369;DHT22;6753;52.520;13.450;2023-02-15T01:07:12;18.70;47.40
13369;DHT22;6753;52.520;13.450;2023-02-15T01:07:24;18.70;47.40
13369;DHT22;6753;52.520;13.450;2023-02-15T01:07:34;18.70;47.40
13369;DHT22;6753;52.520;13.450;2023-02-15T01:07:46;18.70;47.30
13369;DHT22;6753;52.520;13.450;2023-02-15T01:07:57;18.70;47.30
13369;DHT22;6753;52.520;13.450;2023-02-15T01:08:08;18.80;48.00
13369;DHT22;6753;52.520;13.450;2023-02-15T01:08:19;18.90;47.50
13369;DHT22;6753;52.520;13.450;2023-02-15T01:08:30;18.80;47.40
13369;DHT22;6753;52.520;13.450;2023-02-15T01:08:42;18.80;47.40
13369;DHT22;6753;52.520;13.450;2023-02-15T01:08:53;18.80;47.40
13369;DHT22;6753;52.520;13.450;2023-02-15T01:09:04;18.80;47.40
13369;DHT22;6753;52.520;13.450;2023-02-15T01:09:15;18.90;47.50
13369;DHT22;6753;52.520;13.450;2023-02-15T01:09:26;18.90;47.40
13369;DHT22;6753;52.520;13.450;2023-02-15T01:09:37;21.20;50.70
13369;DHT22;6753;52.520;13.450;2023-02-15T01:09:47;18.90;47.50
13369;DHT22;6753;52.520;13.450;2023-02-15T01:09:58;18.90;47.40
13369;DHT22;6753;52.520;13.450;2023-02-15T01:10:09;18.90;47.30
13369;DHT22;6753;52.520;13.450;2023-02-15T01:10:20;18.90;47.30
13369;DHT22;6753;52.520;13.450;2023-02-15T01:10:31;18.90;47.10
13369;DHT22;6753;52.520;13.450;2023-02-15T01:10:43;18.90;47.10
13369;DHT22;6753;52.520;13.450;2023-02-15T01:10:56;18.90;47.10
13369;DHT22;6753;52.520;13.450;2023-02-15T01:11:09;18.90;47.20
13369;DHT22;6753;52.520;13.450;2023-02-15T01:11:21;19.00;47.40
13369;DHT22;6753;52.520;13.450;2023-02-15T01:11:32;19.00;47.50
13369;DHT22;6753;52.520;13.450;2023-02-15T01:11:43;19.00;47.40
13369;DHT22;6753;52.520;13.450;2023-02-15T01:11:54;19.00;47.80
13369;DHT22;6753;52.520;13.450;2023-02-15T01:12:05;19.10;48.20